Latest Weather Observations for Pirlangimpi

IDD60901

Issued at 11:11 am CST Sunday 31 July 2016 (issued every 10 minutes, with the page automatically refreshed every 10 minutes)

About weather observations | Map of Darwin area stations | Latest observations for Darwin area | Other Formats
Station Details ID: 014142 Name: PIRLANGIMPI AIRPORT Lat: -11.40 Lon: 130.42 Height: 18.3 m
Data from the previous 72 hours. | See also: Recent months at Pirlangimpi
Date/Time
CST
Temp
°C
App
Temp
°C
Dew
Point
°C
Rel
Hum
%
Delta-T
°C
Wind Press
QNH
hPa
Press
MSL
hPa
Rain since
9am
mm
Dir  Spd
km/h
Gust
km/h
Spd
kts
Gust
kts
31/11:00am 30.4 31.6 18.2 48 7.8 NE 9 17 5 9 1013.1 1013.0 0.0
31/10:30am 29.0 30.9 19.0 54 6.5 E 7 15 4 8 1013.5 1013.4 0.0
31/10:00am 28.3 31.0 20.3 62 5.3 NE 6 13 3 7 1013.7 1013.6 0.0
31/09:30am 27.1 30.3 21.2 70 3.9 ENE 6 9 3 5 1013.7 1013.6 0.0
31/09:00am 26.1 29.0 21.1 74 3.3 ENE 7 9 4 5 1013.6 1013.5 0.0
31/08:30am 23.0 26.3 20.7 87 1.5 NE 4 7 2 4 1013.3 1013.2 0.0
31/08:00am 20.2 22.3 19.0 93 0.8 NE 6 7 3 4 1012.9 1012.8 0.0
31/07:30am 19.4 21.6 18.4 94 0.6 NE 4 7 2 4 1012.5 1012.4 0.0
31/07:00am 19.2 22.0 17.9 92 0.8 CALM 0 0 0 0 1012.3 1012.2 0.0
31/06:30am 19.4 22.3 18.2 93 0.7 CALM 0 0 0 0 1012.1 1012.0 0.0
31/06:00am 19.7 22.7 18.5 93 0.7 CALM 0 0 0 0 1011.7 1011.6 0.0
31/05:30am 19.8 22.9 18.6 93 0.7 CALM 0 0 0 0 1011.5 1011.4 0.0
31/05:00am 19.9 23.0 18.7 93 0.7 CALM 0 0 0 0 1011.4 1011.3 0.0
31/04:30am 20.0 23.1 18.7 92 0.8 CALM 0 0 0 0 1011.4 1011.3 0.0
31/04:00am 20.4 23.4 19.2 93 0.8 E 2 4 1 2 1011.5 1011.4 0.0
31/03:30am 20.2 23.4 18.9 92 0.8 CALM 0 2 0 1 1011.6 1011.5 0.0
31/03:00am 20.6 24.0 19.4 93 0.8 CALM 0 0 0 0 1011.5 1011.4 0.0
31/02:30am 20.4 22.8 18.9 91 0.9 SSE 4 4 2 2 1011.6 1011.5 0.0
31/02:00am 20.7 23.4 19.4 92 0.8 SSE 4 6 2 3 1011.8 1011.7 0.0
31/01:30am 20.3 22.7 18.8 91 0.9 SSE 4 6 2 3 1012.2 1012.1 0.0
31/01:00am 20.5 23.9 19.3 93 0.8 CALM 0 0 0 0 1012.4 1012.3 0.0
31/12:30am 20.4 23.4 18.5 89 1.2 CALM 0 0 0 0 1012.6 1012.5 0.0
31/12:00am 20.5 23.6 18.6 89 1.2 CALM 0 0 0 0 1012.6 1012.5 0.0
 
Date/Time
CST
Temp
°C
App
Temp
°C
Dew
Point
°C
Rel
Hum
%
Delta-T
°C
Wind Press
QNH
hPa
Press
MSL
hPa
Rain since
9am
mm
Dir  Spd
km/h
Gust
km/h
Spd
kts
Gust
kts
30/11:30pm 20.9 23.4 19.0 89 1.2 ENE 4 4 2 2 1012.6 1012.5 0.0
30/11:00pm 21.3 24.7 19.4 89 1.2 CALM 0 0 0 0 1012.6 1012.5 0.0
30/10:30pm 21.7 25.2 19.6 88 1.3 CALM 0 0 0 0 1012.6 1012.5 0.0
30/10:00pm 22.1 25.5 19.3 84 1.8 CALM 0 0 0 0 1012.6 1012.5 0.0
30/09:30pm 22.3 24.7 18.7 80 2.3 SSW 4 7 2 4 1012.6 1012.5 0.0
30/09:00pm 23.0 26.3 19.2 79 2.4 CALM 0 0 0 0 1012.2 1012.1 0.0
30/08:30pm 23.9 26.6 19.4 76 2.9 NNE 4 6 2 3 1012.1 1012.0 0.0
30/08:00pm 24.1 26.6 19.0 73 3.2 NNE 4 6 2 3 1011.8 1011.7 0.0
30/07:30pm 24.5 26.9 18.0 67 4.1 NE 2 4 1 2 1011.4 1011.3 0.0
30/07:00pm 25.3 27.5 17.5 62 4.9 NE 2 6 1 3 1011.1 1011.0 0.0
30/06:30pm 27.1 29.1 17.0 54 6.3 NE 2 6 1 3 1010.7 1010.6 0.0
30/06:00pm 29.2 29.4 14.2 40 9.0 ENE 6 9 3 5 1010.3 1010.2 0.0
30/05:30pm 30.1 30.0 13.8 37 9.8 E 7 15 4 8 1009.9 1009.8 0.0
30/05:00pm 31.4 30.5 13.6 33 10.7 E 11 17 6 9 1009.8 1009.7 0.0
30/04:30pm 31.5 29.9 12.8 32 11.1 ESE 13 22 7 12 1009.5 1009.4 0.0
30/04:00pm 31.9 30.7 12.7 31 11.4 E 11 17 6 9 1009.3 1009.2 0.0
30/03:30pm 32.1 30.7 12.3 29 11.7 E 11 19 6 10 1009.5 1009.4 0.0
30/03:00pm 31.7 30.3 13.5 33 11.0 ESE 13 20 7 11 1009.7 1009.6 0.0
30/02:30pm 31.6 29.8 13.4 33 10.9 SE 15 24 8 13 1010.2 1010.1 0.0
30/02:00pm 31.5 30.2 13.7 33 10.7 ESE 13 22 7 12 1010.6 1010.5 0.0
30/01:30pm 32.1 31.0 14.3 34 10.9 ENE 13 24 7 13 1011.1 1011.0 0.0
30/01:00pm 32.5 32.1 15.1 35 10.8 ENE 11 22 6 12 1011.5 1011.4 0.0
30/12:30pm 30.6 29.6 15.5 40 9.3 E 15 28 8 15 1012.0 1011.9 0.0
30/12:00pm 30.2 29.0 16.2 42 8.7 E 17 24 9 13 1012.7 1012.6 0.0
30/11:30am 29.9 28.4 15.2 41 9.0 E 17 32 9 17 1013.2 1013.1 0.0
30/11:00am 28.8 27.3 15.3 43 8.3 ESE 17 28 9 15 1013.6 1013.5 0.0
30/10:30am 28.3 27.1 16.2 47 7.5 E 17 28 9 15 1013.9 1013.8 0.0
30/10:00am 27.5 27.7 17.7 55 6.2 E 13 20 7 11 1014.1 1014.0 0.0
30/09:30am 26.5 28.6 19.4 65 4.6 ESE 7 13 4 7 1014.1 1014.0 0.0
30/09:00am 24.0 25.5 17.7 68 3.9 SSE 6 7 3 4 1014.0 1013.9 0.0
30/08:30am 22.6 24.4 17.5 73 3.2 SE 4 6 2 3 1013.6 1013.5 0.0
30/08:00am 21.4 23.3 17.6 79 2.3 SE 4 6 2 3 1013.3 1013.2 0.0
30/07:30am 19.6 21.3 17.2 86 1.5 SE 4 6 2 3 1012.9 1012.8 0.0
30/07:00am 19.7 21.4 17.1 85 1.6 SE 4 6 2 3 1012.6 1012.5 0.0
30/06:30am 20.7 22.6 18.6 88 1.3 SE 6 9 3 5 1012.3 1012.2 0.0
30/06:00am 19.2 21.1 17.7 91 0.9 ESE 4 6 2 3 1012.1 1012.0 0.0
30/05:30am 19.2 21.1 17.7 91 0.9 ESE 4 4 2 2 1011.9 1011.8 0.0
30/05:00am 19.4 21.6 17.5 89 1.2 SSE 2 4 1 2 1011.8 1011.7 0.0
30/04:30am 20.0 22.3 18.5 91 0.9 SE 4 6 2 3 1011.8 1011.7 0.0
30/04:00am 20.1 22.6 18.2 89 1.2 ESE 2 4 1 2 1011.6 1011.5 0.0
30/03:30am 20.4 22.9 18.2 87 1.4 E 2 4 1 2 1011.7 1011.6 0.0
30/03:00am 21.1 23.3 18.3 84 1.7 ESE 4 6 2 3 1011.6 1011.5 0.0
30/02:30am 22.2 24.8 19.2 83 1.9 SE 4 6 2 3 1011.8 1011.7 0.0
30/02:00am 22.6 25.0 19.6 83 1.9 SSE 6 6 3 3 1012.0 1011.9 0.0
30/01:30am 20.9 23.0 18.1 84 1.7 SSE 4 6 2 3 1012.3 1012.2 0.0
30/01:00am 20.8 23.5 17.8 83 1.9 CALM 0 0 0 0 1012.5 1012.4 0.0
30/12:30am 21.0 23.6 17.6 81 2.1 CALM 0 0 0 0 1012.7 1012.6 0.0
30/12:00am 21.4 24.1 17.8 80 2.2 CALM 0 0 0 0 1012.9 1012.8 0.0
 
Date/Time
CST
Temp
°C
App
Temp
°C
Dew
Point
°C
Rel
Hum
%
Delta-T
°C
Wind Press
QNH
hPa
Press
MSL
hPa
Rain since
9am
mm
Dir  Spd
km/h
Gust
km/h
Spd
kts
Gust
kts
29/11:30pm 22.0 24.7 17.8 77 2.6 CALM 0 0 0 0 1012.9 1012.8 0.0
29/11:00pm 22.1 24.7 17.5 75 2.8 CALM 0 0 0 0 1013.2 1013.1 0.0
29/10:30pm 22.5 25.0 17.2 72 3.3 CALM 0 0 0 0 1013.3 1013.2 0.0
29/10:00pm 22.7 25.2 17.2 71 3.4 CALM 0 0 0 0 1013.4 1013.3 0.0
29/09:30pm 23.1 25.2 16.2 65 4.2 CALM 0 0 0 0 1013.2 1013.1 0.0
29/09:00pm 23.4 25.8 16.9 67 4.0 CALM 0 0 0 0 1013.0 1012.9 0.0
29/08:30pm 23.6 25.4 15.6 61 4.8 CALM 0 0 0 0 1012.6 1012.5 0.0
29/08:00pm 24.2 25.8 14.9 56 5.6 CALM 0 0 0 0 1012.3 1012.2 0.0
29/07:30pm 25.0 26.4 14.5 52 6.3 CALM 0 0 0 0 1011.7 1011.6 0.0
29/07:00pm 26.0 27.3 14.1 47 7.1 CALM 0 0 0 0 1011.4 1011.3 0.0
29/06:30pm 28.9 28.9 13.6 39 9.1 E 6 9 3 5 1011.1 1011.0 0.0
29/06:00pm 30.0 29.5 13.7 37 9.8 E 9 13 5 7 1010.8 1010.7 0.0
29/05:30pm 30.7 30.1 13.5 35 10.3 E 9 17 5 9 1010.6 1010.5 0.0
29/05:00pm 31.4 30.1 13.6 33 10.7 E 13 24 7 13 1010.3 1010.2 0.0
29/04:30pm 31.6 30.3 13.8 34 10.8 E 13 22 7 12 1010.1 1010.0 0.0
29/04:00pm 32.1 30.6 14.3 34 10.9 E 15 22 8 12 1010.3 1010.2 0.0
29/03:30pm 32.0 30.5 14.2 34 10.9 ESE 15 26 8 14 1010.3 1010.2 0.0
29/03:00pm 33.0 32.3 15.5 35 10.9 E 13 28 7 15 1010.3 1010.2 0.0
29/02:30pm 32.5 30.8 14.6 34 11.0 E 17 24 9 13 1010.6 1010.5 0.0
29/02:00pm 32.5 30.9 15.1 35 10.8 E 17 28 9 15 1011.1 1011.0 0.0
29/01:30pm 31.8 30.4 14.4 34 10.6 SE 15 24 8 13 1011.5 1011.4 0.0
29/01:00pm 31.5 29.8 13.7 33 10.7 ESE 15 24 8 13 1011.5 1011.4 0.0
29/12:30pm 32.3 31.2 15.3 35 10.5 SE 15 28 8 15 1012.0 1011.9 0.0
29/12:00pm 31.0 29.8 15.0 38 9.8 ESE 15 26 8 14 1012.6 1012.5 0.0
29/11:30am 30.2 28.8 15.5 41 9.1 ESE 17 24 9 13 1013.1 1013.0 0.0
29/11:00am 29.1 27.8 14.9 42 8.6 ESE 15 28 8 15 1013.6 1013.5 0.0
29/10:30am 28.9 27.4 15.4 44 8.3 E 17 33 9 18 1013.7 1013.6 0.0
29/10:00am 27.6 26.3 15.9 49 7.2 ESE 17 32 9 17 1014.0 1013.9 0.0
29/09:30am 26.7 26.7 17.2 56 5.9 E 13 24 7 13 1014.3 1014.2 0.0
29/09:00am 23.6 24.9 16.1 62 4.6 S 4 6 2 3 1014.2 1014.1 0.0
29/08:30am 21.9 23.0 15.5 67 3.8 SSE 4 6 2 3 1014.1 1014.0 0.0
29/08:00am 20.8 22.6 15.4 71 3.2 CALM 0 2 0 1 1013.8 1013.7 0.0
29/07:30am 20.3 21.1 14.9 71 3.2 ESE 4 6 2 3 1013.5 1013.4 0.0
29/07:00am 20.1 20.8 14.5 70 3.3 SSE 4 6 2 3 1013.3 1013.2 0.0
29/06:30am 19.6 20.7 14.6 73 2.9 SSE 2 4 1 2 1013.0 1012.9 0.0
29/06:00am 19.4 20.1 14.4 73 2.9 SSE 4 6 2 3 1012.9 1012.8 0.0
29/05:30am 19.6 20.2 14.2 71 3.1 SE 4 6 2 3 1012.8 1012.7 0.0
29/05:00am 20.1 20.9 14.7 71 3.2 SSE 4 6 2 3 1012.7 1012.6 0.0
29/04:30am 19.9 20.8 15.1 74 2.8 SSE 4 6 2 3 1012.7 1012.6 0.0
29/04:00am 20.2 20.8 15.4 74 2.8 SSE 6 7 3 4 1012.6 1012.5 0.0
29/03:30am 20.8 21.7 16.2 75 2.8 S 6 9 3 5 1012.8 1012.7 0.0
29/03:00am 19.9 21.3 16.3 80 2.2 SSE 4 6 2 3 1013.1 1013.0 0.0
29/02:30am 20.1 21.4 16.1 78 2.4 SE 4 7 2 4 1013.3 1013.2 0.0
29/02:00am 19.2 21.2 15.9 81 2.0 CALM 0 4 0 2 1013.5 1013.4 0.0
29/01:30am 19.1 21.0 15.8 81 2.0 CALM 0 0 0 0 1013.7 1013.6 0.0
29/01:00am 19.2 21.1 15.7 80 2.1 CALM 0 0 0 0 1013.9 1013.8 0.0
29/12:30am 19.7 21.6 15.8 78 2.3 CALM 0 0 0 0 1014.1 1014.0 0.0
29/12:00am 20.0 21.9 15.8 77 2.5 CALM 0 0 0 0 1014.2 1014.1 0.0
 
Date/Time
CST
Temp
°C
App
Temp
°C
Dew
Point
°C
Rel
Hum
%
Delta-T
°C
Wind Press
QNH
hPa
Press
MSL
hPa
Rain since
9am
mm
Dir  Spd
km/h
Gust
km/h
Spd
kts
Gust
kts
28/11:30pm 20.8 23.0 16.4 76 2.7 CALM 0 0 0 0 1014.4 1014.3 0.0
28/11:00pm 20.9 23.1 16.5 76 2.7 CALM 0 0 0 0 1014.5 1014.4 0.0
28/10:30pm 21.0 23.2 16.4 75 2.8 CALM 0 0 0 0 1014.5 1014.4 0.0
28/10:00pm 21.2 23.2 16.0 72 3.1 CALM 0 0 0 0 1014.3 1014.2 0.0
28/09:30pm 21.7 23.1 15.3 67 3.8 SSE 2 4 1 2 1014.2 1014.1 0.0
28/09:00pm 21.7 22.9 14.8 65 4.1 SSE 2 4 1 2 1013.9 1013.8 0.0
28/08:30pm 22.3 23.6 14.2 60 4.7 CALM 0 0 0 0 1013.6 1013.5 0.0
28/08:00pm 23.1 23.9 13.8 55 5.4 NE 2 4 1 2 1013.0 1012.9 0.0
28/07:30pm 24.0 24.7 13.5 52 6.1 ENE 2 4 1 2 1012.8 1012.7 0.0
28/07:00pm 26.9 27.2 13.3 43 8.0 ESE 4 6 2 3 1012.4 1012.3 0.0
28/06:30pm 28.0 27.5 12.8 39 8.9 ESE 7 9 4 5 1012.1 1012.0 0.0
28/06:00pm 28.9 28.1 12.8 37 9.5 SE 9 15 5 8 1011.9 1011.8 0.0
28/05:30pm 29.6 28.4 12.9 35 9.9 E 11 17 6 9 1011.6 1011.5 0.0
28/05:00pm 30.7 29.8 12.6 33 10.7 ENE 9 19 5 10 1011.2 1011.1 0.0
28/04:30pm 31.3 30.2 13.1 33 10.9 E 11 20 6 11 1010.9 1010.8 0.0
28/04:00pm 31.7 30.4 12.5 31 11.4 ENE 11 19 6 10 1010.8 1010.7 0.0
28/03:30pm 32.0 31.2 12.8 31 11.5 E 9 17 5 9 1011.0 1010.9 0.0
28/03:00pm 31.0 28.6 11.4 30 11.4 SE 15 26 8 14 1011.3 1011.2 0.0
28/02:30pm 31.5 29.8 11.3 29 11.7 ESE 11 19 6 10 1011.7 1011.6 0.0
28/02:00pm 31.3 28.9 10.1 27 12.1 ESE 13 22 7 12 1012.1 1012.0 0.0
28/01:30pm 30.0 27.4 9.5 28 11.5 SE 13 24 7 13 1012.6 1012.5 0.0
28/01:00pm 29.9 26.2 9.4 28 11.5 SE 19 32 10 17 1013.2 1013.1 0.0
28/12:30pm 29.4 26.5 9.5 29 11.1 ESE 15 26 8 14 1013.6 1013.5 0.0
28/12:00pm 28.8 26.5 10.5 32 10.4 ESE 13 22 7 12 1014.3 1014.2 0.0
28/11:30am 27.9 24.7 10.1 33 10.0 SE 17 26 9 14 1014.9 1014.8 0.0

Latest Capital City Observations: Canberra | Sydney | Melbourne | Brisbane | Adelaide | Perth | Hobart | Darwin

Other Formats:

Comma delimited format used in spreadsheet applications
http://www.bom.gov.au/fwo/IDD60901/IDD60901.94119.axf

JavaScript Object Notation format (JSON) in row-major order
http://www.bom.gov.au/fwo/IDD60901/IDD60901.94119.json